Time;durP1;ratioP1;P1;durP2;ratioP2;P2;SDS_P1;SDS_P2;PMS_P1;PMS_P2;Temp;Humidity;BMP_temperature;BMP_pressure;BME280_temperature;BME280_humidity;BME280_pressure;Samples;Min_cycle;Max_cycle;Signal;HPM_P1;HPM_P2
2022/04/11 00:00:28;;;;;;;2.20;1.25;;;23.20;73.90;;;;;;5071802;23;20036;-63
2022/04/11 00:02:30;;;;;;;1.42;1.10;;;23.20;73.80;;;;;;5046301;23;20025;-62
2022/04/11 00:04:32;;;;;;;1.48;0.98;;;23.20;73.70;;;;;;5073574;23;20167;-63
2022/04/11 00:06:34;;;;;;;1.40;0.80;;;23.20;73.60;;;;;;5081379;23;20045;-72
2022/04/11 00:08:38;;;;;;;3.45;0.80;;;23.30;73.70;;;;;;5043104;23;20029;-70
2022/04/11 00:10:40;;;;;;;2.28;1.02;;;23.30;73.70;;;;;;5072062;23;20132;-69
2022/04/11 00:12:42;;;;;;;1.08;0.82;;;23.30;73.70;;;;;;5075994;23;20029;-76
2022/04/11 00:14:44;;;;;;;1.60;1.05;;;23.30;73.60;;;;;;5050287;23;20416;-75
2022/04/11 00:16:46;;;;;;;2.55;0.63;;;23.40;73.60;;;;;;5072010;23;20067;-72
2022/04/11 00:18:49;;;;;;;1.15;0.85;;;23.40;73.60;;;;;;5075934;23;20075;-74
2022/04/11 00:20:52;;;;;;;1.65;0.80;;;23.50;73.60;;;;;;5082533;23;20028;-80
2022/04/11 00:22:53;;;;;;;;;;;23.50;73.60;;;;;;5077932;23;20025;-76
2022/04/11 00:24:56;;;;;;;1.95;0.93;;;23.50;73.50;;;;;;5052399;23;19920;-66
2022/04/11 00:27:00;;;;;;;2.03;0.80;;;23.50;73.40;;;;;;5074943;23;20051;-76
2022/04/11 00:29:03;;;;;;;1.70;0.95;;;23.50;73.30;;;;;;5077882;23;20025;-75
2022/04/11 00:31:05;;;;;;;0.90;0.60;;;23.50;73.30;;;;;;5076019;23;20268;-81
2022/04/11 00:33:07;;;;;;;1.38;0.80;;;23.50;73.30;;;;;;5049695;23;20064;-75
2022/04/11 00:35:10;;;;;;;1.60;0.77;;;23.50;73.20;;;;;;5051741;23;20029;-74
2022/04/11 00:37:12;;;;;;;2.05;0.90;;;23.60;73.20;;;;;;5052755;23;20488;-78
2022/04/11 00:39:14;;;;;;;1.45;0.80;;;23.60;73.30;;;;;;5075340;23;20729;-68
2022/04/11 00:41:17;;;;;;;1.38;0.60;;;23.60;73.20;;;;;;5075183;23;20033;-70
2022/04/11 00:43:39;;;;;;;0.80;0.60;;;23.60;73.10;;;;;;5052127;23;20029;-76
2022/04/11 00:45:41;;;;;;;1.83;0.80;;;23.60;73.10;;;;;;5075348;23;20048;-72
2022/04/11 00:47:46;;;;;;;1.50;0.85;;;23.70;73.10;;;;;;5082502;23;20025;-72
2022/04/11 00:49:53;;;;;;;1.13;0.80;;;23.70;73.00;;;;;;5077367;23;20057;-75
2022/04/11 00:51:56;;;;;;;2.33;0.80;;;23.70;73.00;;;;;;5074224;23;20021;-76
2022/04/11 00:54:00;;;;;;;1.00;0.80;;;23.70;73.00;;;;;;5081338;23;20025;-71
2022/04/11 00:56:02;;;;;;;1.00;0.70;;;23.80;72.90;;;;;;5085401;23;20602;-71
2022/04/11 00:58:06;;;;;;;0.80;0.70;;;23.80;72.80;;;;;;5086285;23;20410;-78
2022/04/11 01:00:08;;;;;;;;;;;23.80;72.80;;;;;;5059998;23;20552;-76
2022/04/11 01:02:11;;;;;;;0.80;0.63;;;23.80;72.80;;;;;;5050903;23;20020;-77
2022/04/11 01:04:23;;;;;;;0.60;0.60;;;23.80;72.80;;;;;;5086401;23;20044;-78
2022/04/11 01:06:26;;;;;;;0.70;0.70;;;23.90;72.80;;;;;;5056632;23;20029;-75
2022/04/11 01:08:28;;;;;;;;;;;23.90;72.60;;;;;;5074353;23;20029;-74
2022/04/11 01:10:30;;;;;;;2.88;0.90;;;23.90;72.50;;;;;;5072264;23;19927;-75
2022/04/11 01:12:33;;;;;;;3.22;1.20;;;23.90;72.40;;;;;;5053790;23;20044;-70
2022/04/11 01:14:35;;;;;;;4.40;1.27;;;23.90;72.50;;;;;;5076860;23;20446;-71
2022/04/11 01:16:37;;;;;;;29.42;3.90;;;23.90;72.50;;;;;;5044890;23;20176;-78
2022/04/11 01:18:40;;;;;;;17.10;2.42;;;24.00;72.50;;;;;;5074608;23;20036;-80
2022/04/11 01:20:42;;;;;;;21.80;2.47;;;24.00;72.60;;;;;;5082213;23;20144;-75
2022/04/11 01:22:45;;;;;;;16.95;2.60;;;24.00;72.70;;;;;;5050370;23;20581;-72
2022/04/11 01:24:48;;;;;;;11.20;1.63;;;24.00;72.70;;;;;;5048651;23;20772;-73
2022/04/11 01:26:51;;;;;;;9.02;1.40;;;24.10;72.80;;;;;;5025986;23;20109;-72
2022/04/11 01:28:55;;;;;;;6.18;1.63;;;24.10;72.70;;;;;;5075863;23;20223;-73
2022/04/11 01:31:01;;;;;;;11.80;1.55;;;24.10;72.70;;;;;;5075239;23;20506;-74
2022/04/11 01:33:15;;;;;;;9.35;1.27;;;24.20;72.80;;;;;;5075764;23;20370;-76
2022/04/11 01:35:28;;;;;;;10.15;1.83;;;24.10;72.80;;;;;;5030624;23;20415;-74
2022/04/11 01:37:30;;;;;;;7.05;1.25;;;24.20;72.90;;;;;;5078977;23;20032;-77
2022/04/11 01:39:32;;;;;;;5.00;1.05;;;24.20;72.80;;;;;;5080719;23;20033;-74
2022/04/11 01:41:34;;;;;;;8.18;0.95;;;24.20;72.80;;;;;;5059492;23;20057;-67
2022/04/11 01:43:37;;;;;;;129.50;13.40;;;24.30;72.70;;;;;;5079497;23;20447;-63
2022/04/11 01:58:13;;;;;;;4.88;1.00;;;24.70;73.40;;;;;;4195595;27;20446;-50
2022/04/11 02:00:16;;;;;;;3.72;0.95;;;24.80;71.70;;;;;;4208349;27;20047;-56
2022/04/11 02:02:18;;;;;;;1.75;1.00;;;24.70;71.40;;;;;;4224232;27;20047;-56
2022/04/11 02:04:20;;;;;;;7.03;1.10;;;24.60;71.30;;;;;;4198181;27;20056;-57
2022/04/11 02:06:23;;;;;;;2.58;1.00;;;24.60;71.20;;;;;;4194364;27;20043;-57
2022/04/11 02:08:25;;;;;;;3.78;1.20;;;24.60;71.20;;;;;;4201393;28;20221;-52
2022/04/11 02:10:28;;;;;;;3.92;1.00;;;24.60;71.30;;;;;;4180242;28;20060;-55
2022/04/11 02:12:30;;;;;;;1.10;0.98;;;24.50;71.20;;;;;;4216634;27;20058;-55
2022/04/11 02:14:33;;;;;;;1.40;0.82;;;24.50;71.80;;;;;;4210209;28;20046;-57
2022/04/11 02:16:36;;;;;;;1.75;1.13;;;24.50;71.10;;;;;;4216438;27;20055;-54
2022/04/11 02:18:41;;;;;;;1.05;0.73;;;24.60;71.10;;;;;;4206695;27;20102;-52
2022/04/11 02:20:52;;;;;;;1.30;0.90;;;24.50;71.10;;;;;;4207115;27;20150;-57
2022/04/11 02:22:57;;;;;;;2.35;0.82;;;24.60;71.10;;;;;;4195766;28;20738;-54
2022/04/11 02:25:11;;;;;;;2.70;0.80;;;24.50;71.00;;;;;;4204134;27;20055;-57
2022/04/11 02:27:19;;;;;;;1.77;0.70;;;24.60;71.00;;;;;;4198861;28;20164;-51
2022/04/11 02:29:22;;;;;;;1.65;1.05;;;24.50;70.90;;;;;;4218825;27;20561;-52
2022/04/11 02:31:24;;;;;;;;;;;24.60;70.90;;;;;;4200866;27;20046;-53
2022/04/11 02:33:50;;;;;;;0.70;0.70;;;24.60;70.90;;;;;;4196998;27;19931;-54
2022/04/11 02:35:52;;;;;;;1.05;0.70;;;24.60;70.80;;;;;;4193242;27;20091;-54
2022/04/11 02:38:01;;;;;;;1.00;0.90;;;24.60;70.80;;;;;;4195801;27;20051;-53
2022/04/11 02:40:07;;;;;;;1.27;0.98;;;24.60;68.80;;;;;;4186636;27;20162;-54
2022/04/11 02:42:09;;;;;;;2.22;1.10;;;24.70;68.20;;;;;;4183684;27;20051;-51
2022/04/11 02:44:18;;;;;;;1.85;1.13;;;24.70;66.20;;;;;;4191165;28;20052;-53
2022/04/11 02:46:20;;;;;;;3.72;1.10;;;24.80;66.40;;;;;;4188274;28;20717;-51
2022/04/11 02:48:23;;;;;;;2.42;1.15;;;24.90;66.20;;;;;;4189493;27;21149;-52
2022/04/11 02:50:25;;;;;;;3.78;1.40;;;24.90;66.20;;;;;;4184230;27;20145;-60
2022/04/11 02:52:29;;;;;;;4.68;2.20;;;25.00;66.30;;;;;;4184191;27;20490;-59
2022/04/11 02:54:31;;;;;;;4.43;1.55;;;25.00;64.70;;;;;;4189916;27;20047;-60
2022/04/11 02:56:36;;;;;;;0.90;0.90;;;25.10;64.40;;;;;;4183428;27;20051;-60
2022/04/11 02:58:38;;;;;;;3.72;1.30;;;25.20;63.50;;;;;;4186329;28;20671;-60
2022/04/11 03:00:40;;;;;;;1.25;0.95;;;25.30;63.00;;;;;;4187828;27;20058;-59
2022/04/11 03:02:42;;;;;;;1.55;1.00;;;25.40;62.50;;;;;;4192657;27;20260;-59
2022/04/11 03:04:45;;;;;;;1.52;1.10;;;25.40;63.60;;;;;;4186256;27;20051;-58
2022/04/11 03:06:47;;;;;;;2.05;1.20;;;25.50;62.90;;;;;;4183337;27;20498;-60
2022/04/11 03:08:50;;;;;;;2.17;1.40;;;25.60;62.90;;;;;;4183915;28;20113;-56
2022/04/11 03:10:52;;;;;;;1.33;1.00;;;25.60;62.50;;;;;;4176187;27;20078;-54
2022/04/11 03:12:55;;;;;;;5.75;1.33;;;25.60;63.00;;;;;;4176828;28;20056;-56
2022/04/11 03:14:57;;;;;;;4.07;1.30;;;25.60;62.30;;;;;;4173033;27;20963;-60
2022/04/11 03:17:00;;;;;;;2.67;1.45;;;25.60;62.80;;;;;;4180589;28;20138;-57
2022/04/11 03:19:02;;;;;;;3.53;1.20;;;25.70;60.90;;;;;;4174598;27;20120;-60
2022/04/11 03:21:36;;;;;;;2.50;1.27;;;25.70;60.00;;;;;;4176695;28;20834;-64
2022/04/11 03:23:38;;;;;;;;;;;25.80;60.30;;;;;;4157584;28;21408;-54
2022/04/11 03:25:40;;;;;;;1.13;1.02;;;25.90;60.60;;;;;;4198132;27;20007;-52
2022/04/11 03:27:43;;;;;;;0.90;0.90;;;26.00;61.00;;;;;;4181105;28;20158;-52
2022/04/11 03:29:45;;;;;;;1.83;1.10;;;26.10;59.40;;;;;;4195041;27;20442;-53
2022/04/11 03:31:48;;;;;;;1.75;1.15;;;26.20;58.90;;;;;;4180857;28;21191;-54
2022/04/11 03:33:50;;;;;;;1.67;1.13;;;26.20;58.30;;;;;;4174825;28;20158;-50
2022/04/11 03:35:53;;;;;;;1.70;1.20;;;26.30;58.70;;;;;;4175439;28;20044;-51
2022/04/11 03:37:56;;;;;;;1.38;1.10;;;26.40;59.10;;;;;;4177716;27;20058;-53
2022/04/11 03:40:00;;;;;;;2.10;1.42;;;26.40;59.50;;;;;;4162304;28;20052;-51
2022/04/11 03:42:02;;;;;;;1.98;1.20;;;26.40;59.70;;;;;;4164812;28;20409;-59
2022/04/11 03:44:04;;;;;;;1.60;1.30;;;26.40;60.20;;;;;;4136685;28;20923;-49
2022/04/11 03:46:06;;;;;;;2.93;1.20;;;26.50;60.30;;;;;;4145428;28;20746;-53
2022/04/11 03:48:08;;;;;;;2.67;1.27;;;26.50;61.00;;;;;;4140249;28;20185;-55
2022/04/11 03:50:11;;;;;;;1.33;0.90;;;26.50;61.40;;;;;;4137502;28;20468;-48
2022/04/11 03:52:13;;;;;;;1.43;1.00;;;26.50;62.00;;;;;;4140951;28;20052;-54
2022/04/11 03:54:15;;;;;;;5.03;1.33;;;26.50;62.60;;;;;;4140612;28;20055;-52
2022/04/11 03:56:18;;;;;;;2.25;1.35;;;26.50;62.60;;;;;;4133606;28;20069;-52
2022/04/11 03:58:20;;;;;;;2.10;1.10;;;26.60;62.70;;;;;;4134962;28;20052;-50
2022/04/11 04:00:23;;;;;;;1.40;1.20;;;26.70;62.80;;;;;;4141727;28;20049;-55
2022/04/11 04:02:25;;;;;;;2.60;1.40;;;26.70;62.80;;;;;;4136248;28;20310;-54
2022/04/11 04:04:27;;;;;;;1.98;1.30;;;26.70;62.90;;;;;;4135511;28;20073;-51
2022/04/11 04:06:29;;;;;;;2.57;1.43;;;26.70;63.10;;;;;;4143454;28;20482;-55
2022/04/11 04:08:32;;;;;;;3.57;1.37;;;26.60;63.10;;;;;;4140963;28;20737;-52
2022/04/11 04:10:34;;;;;;;1.48;1.15;;;26.70;63.20;;;;;;4135730;28;20682;-50
2022/04/11 04:12:37;;;;;;;2.38;1.30;;;26.70;63.40;;;;;;4135739;28;20052;-59
2022/04/11 04:14:39;;;;;;;2.03;1.27;;;26.70;63.40;;;;;;4146225;28;20045;-52
2022/04/11 04:16:42;;;;;;;3.00;1.30;;;26.70;63.40;;;;;;4136468;28;20100;-57
2022/04/11 04:18:44;;;;;;;2.35;1.23;;;26.70;63.30;;;;;;4138372;28;20045;-54
2022/04/11 04:20:46;;;;;;;4.80;1.20;;;26.70;63.20;;;;;;4140101;28;20633;-59
2022/04/11 04:22:49;;;;;;;5.57;1.70;;;26.70;62.80;;;;;;4140500;28;20063;-57
2022/04/11 04:24:51;;;;;;;6.22;1.52;;;26.70;63.30;;;;;;4135228;28;20417;-55
2022/04/11 04:26:54;;;;;;;8.10;1.43;;;26.70;63.50;;;;;;4137711;28;20147;-55
2022/04/11 04:28:56;;;;;;;2.60;1.33;;;26.80;63.10;;;;;;4142006;28;20056;-55
2022/04/11 04:30:58;;;;;;;1.87;1.37;;;26.80;62.80;;;;;;4136399;28;20166;-54
2022/04/11 04:33:00;;;;;;;1.88;1.25;;;26.90;62.30;;;;;;4135795;28;20857;-56
2022/04/11 04:35:05;;;;;;;4.63;1.65;;;26.90;61.80;;;;;;4139645;28;20056;-58
2022/04/11 04:37:09;;;;;;;2.00;1.30;;;26.90;61.70;;;;;;4142545;28;20068;-57
2022/04/11 04:39:11;;;;;;;2.50;1.48;;;27.00;61.90;;;;;;4136904;28;20873;-57
2022/04/11 04:41:13;;;;;;;2.80;1.40;;;27.00;60.50;;;;;;4137003;28;20064;-59
2022/04/11 04:43:16;;;;;;;2.65;1.27;;;27.10;61.30;;;;;;4137716;28;20055;-59
2022/04/11 04:45:18;;;;;;;1.60;1.20;;;27.10;61.20;;;;;;4142424;28;21140;-60
2022/04/11 04:47:20;;;;;;;2.97;1.38;;;27.10;61.50;;;;;;4137421;28;20052;-57
2022/04/11 04:49:23;;;;;;;2.73;1.30;;;27.20;61.30;;;;;;4136702;28;20067;-56
2022/04/11 04:51:25;;;;;;;1.45;1.02;;;27.30;61.00;;;;;;4142693;28;20052;-54
2022/04/11 04:53:30;;;;;;;4.28;1.38;;;27.30;61.50;;;;;;4136969;28;20053;-58
2022/04/11 04:55:32;;;;;;;2.00;1.10;;;27.40;61.90;;;;;;4136929;28;20107;-56
2022/04/11 04:57:35;;;;;;;2.08;1.10;;;27.40;61.80;;;;;;4140183;28;20052;-56
2022/04/11 04:59:37;;;;;;;4.50;1.33;;;27.40;61.40;;;;;;4144149;28;20136;-58
2022/04/11 05:01:39;;;;;;;3.25;1.25;;;27.40;61.50;;;;;;4135334;28;20064;-56
2022/04/11 05:03:44;;;;;;;1.85;1.00;;;27.40;61.80;;;;;;4137407;28;20045;-54
2022/04/11 05:05:46;;;;;;;3.10;1.38;;;27.50;62.20;;;;;;4140469;28;20056;-58
2022/04/11 05:07:48;;;;;;;2.38;1.10;;;27.50;63.00;;;;;;4141386;28;20072;-58
2022/04/11 05:09:50;;;;;;;2.42;1.00;;;27.50;62.50;;;;;;4136175;28;20883;-56
2022/04/11 05:11:53;;;;;;;16.33;1.50;;;27.50;62.90;;;;;;4135999;28;20133;-58
2022/04/11 05:13:55;;;;;;;1.30;1.08;;;27.50;63.40;;;;;;4142562;28;20173;-59
2022/04/11 05:15:57;;;;;;;1.40;0.83;;;27.50;63.50;;;;;;4135490;28;20136;-58
2022/04/11 05:18:00;;;;;;;3.33;1.10;;;27.60;63.50;;;;;;4138893;28;20332;-59
2022/04/11 05:20:04;;;;;;;1.25;0.95;;;27.60;63.60;;;;;;4142732;28;20056;-60
2022/04/11 05:22:06;;;;;;;3.90;1.10;;;27.60;63.50;;;;;;4144953;28;20424;-57
2022/04/11 05:24:08;;;;;;;2.08;1.23;;;27.60;63.60;;;;;;4137890;28;20489;-58
2022/04/11 05:26:10;;;;;;;6.83;1.10;;;27.70;63.60;;;;;;4134410;28;20099;-58
2022/04/11 05:28:13;;;;;;;2.30;0.95;;;27.70;63.80;;;;;;4142264;28;20879;-54
2022/04/11 05:30:15;;;;;;;1.70;0.90;;;27.70;63.90;;;;;;4137226;28;20589;-59
2022/04/11 05:32:17;;;;;;;4.65;1.23;;;27.70;63.70;;;;;;4140194;28;20391;-55
2022/04/11 05:34:19;;;;;;;0.90;0.70;;;27.80;63.80;;;;;;4144912;28;20057;-58
2022/04/11 05:36:21;;;;;;;1.73;1.10;;;27.80;64.10;;;;;;4145059;28;20067;-54
2022/04/11 05:38:24;;;;;;;2.07;0.77;;;27.80;64.00;;;;;;4138119;28;20070;-54
2022/04/11 05:40:26;;;;;;;1.38;0.95;;;27.80;64.00;;;;;;4135924;28;20052;-56
2022/04/11 05:42:29;;;;;;;1.13;0.80;;;27.90;64.10;;;;;;4140936;28;20070;-56
2022/04/11 05:44:31;;;;;;;3.15;1.15;;;27.90;64.20;;;;;;4137893;28;20051;-58
2022/04/11 05:46:33;;;;;;;0.97;0.70;;;27.90;64.00;;;;;;4136524;28;20071;-52
2022/04/11 05:48:35;;;;;;;1.60;0.85;;;28.00;64.20;;;;;;4136663;28;20049;-55
2022/04/11 05:50:37;;;;;;;1.10;0.80;;;28.00;64.00;;;;;;4141024;28;20052;-56
2022/04/11 05:52:40;;;;;;;0.73;0.60;;;28.00;64.10;;;;;;4133753;28;20293;-56
2022/04/11 05:54:42;;;;;;;1.33;0.77;;;28.10;64.00;;;;;;4135304;28;20480;-52
2022/04/11 05:56:44;;;;;;;0.75;0.50;;;28.10;63.80;;;;;;4144104;28;20057;-53
2022/04/11 05:58:46;;;;;;;0.60;0.60;;;28.20;63.90;;;;;;4139537;28;20056;-58
2022/04/11 06:00:48;;;;;;;2.20;0.70;;;28.20;63.80;;;;;;4143068;28;20413;-58
2022/04/11 06:02:51;;;;;;;2.10;0.70;;;28.20;63.90;;;;;;4144717;28;21049;-56
2022/04/11 06:04:53;;;;;;;1.48;0.90;;;28.20;64.40;;;;;;4147122;28;20400;-57
2022/04/11 06:06:55;;;;;;;1.38;0.73;;;28.20;64.30;;;;;;4139723;28;20137;-51
2022/04/11 06:09:00;;;;;;;0.50;0.50;;;28.20;64.10;;;;;;4140742;28;20053;-59
2022/04/11 06:11:02;;;;;;;0.50;0.50;;;28.20;64.20;;;;;;4142690;28;20087;-59
2022/04/11 06:13:04;;;;;;;2.20;0.82;;;28.20;64.00;;;;;;4143024;28;20372;-53
2022/04/11 06:15:07;;;;;;;1.13;0.50;;;28.20;63.90;;;;;;4144270;28;20067;-52
2022/04/11 06:17:09;;;;;;;0.95;0.80;;;28.20;63.90;;;;;;4148650;28;20095;-59
2022/04/11 06:19:12;;;;;;;0.75;0.70;;;28.20;64.40;;;;;;4148740;28;20049;-57
2022/04/11 06:21:14;;;;;;;0.82;0.60;;;28.20;64.20;;;;;;4144859;28;20045;-59
2022/04/11 06:23:17;;;;;;;1.17;0.80;;;28.30;64.40;;;;;;4123582;28;20061;-60
2022/04/11 06:25:20;;;;;;;1.67;0.80;;;28.30;64.10;;;;;;4145691;28;20049;-58
2022/04/11 06:27:22;;;;;;;1.23;1.00;;;28.30;64.20;;;;;;4149723;28;20041;-60
2022/04/11 06:29:24;;;;;;;3.17;0.77;;;28.30;64.00;;;;;;4147390;28;20592;-57
2022/04/11 06:31:34;;;;;;;1.47;0.80;;;28.30;64.70;;;;;;4153054;28;20086;-56
2022/04/11 06:33:39;;;;;;;0.90;0.70;;;28.30;64.10;;;;;;4138092;28;20045;-57
2022/04/11 06:35:41;;;;;;;1.50;0.80;;;28.30;64.00;;;;;;4157451;28;20049;-54
2022/04/11 06:37:44;;;;;;;0.70;0.70;;;28.30;64.00;;;;;;4144638;28;20057;-55
2022/04/11 06:39:46;;;;;;;1.20;0.80;;;28.30;63.90;;;;;;4154463;28;20358;-58
2022/04/11 06:41:49;;;;;;;0.73;0.70;;;28.30;64.00;;;;;;4144697;28;20107;-55
2022/04/11 06:43:50;;;;;;;;;;;28.30;64.10;;;;;;4147856;28;20431;-51
2022/04/11 06:45:53;;;;;;;1.02;0.60;;;28.30;64.10;;;;;;4143607;28;19924;-54
2022/04/11 06:47:55;;;;;;;0.50;0.50;;;28.30;64.20;;;;;;4141401;28;20837;-52
2022/04/11 06:49:57;;;;;;;0.63;0.50;;;28.30;64.30;;;;;;4137840;28;20057;-52
2022/04/11 06:51:59;;;;;;;0.90;0.70;;;28.30;64.30;;;;;;4142376;28;20064;-55
2022/04/11 06:54:02;;;;;;;1.20;0.80;;;28.30;64.30;;;;;;4142239;28;20045;-56
2022/04/11 06:56:04;;;;;;;1.30;0.90;;;28.30;64.30;;;;;;4148184;28;20055;-57
2022/04/11 06:58:07;;;;;;;2.05;0.70;;;28.30;64.20;;;;;;4141322;28;20106;-54
2022/04/11 07:00:09;;;;;;;1.85;0.70;;;28.30;64.10;;;;;;4142725;28;20049;-51
2022/04/11 07:02:12;;;;;;;2.13;0.93;;;28.30;64.10;;;;;;4143000;28;20143;-55
2022/04/11 07:04:14;;;;;;;0.98;0.60;;;28.30;64.10;;;;;;4146628;28;20509;-55
2022/04/11 07:06:16;;;;;;;1.07;0.70;;;28.30;64.30;;;;;;4139324;28;20157;-51
2022/04/11 07:08:18;;;;;;;1.38;0.77;;;28.20;64.20;;;;;;4134687;28;20544;-58
2022/04/11 07:10:21;;;;;;;0.82;0.70;;;28.20;64.30;;;;;;4141358;28;20048;-57
2022/04/11 07:12:23;;;;;;;2.20;1.10;;;28.20;64.50;;;;;;4134870;28;21477;-55
2022/04/11 07:14:26;;;;;;;1.07;0.90;;;28.20;64.40;;;;;;4136029;28;20431;-63
2022/04/11 07:16:28;;;;;;;3.10;1.30;;;28.20;64.50;;;;;;4131654;28;20305;-54
2022/04/11 07:18:31;;;;;;;2.38;1.00;;;28.20;64.30;;;;;;4139389;28;20150;-58
2022/04/11 07:20:33;;;;;;;3.17;1.38;;;28.10;64.10;;;;;;4132531;28;20049;-54
2022/04/11 07:22:36;;;;;;;3.63;1.40;;;28.10;63.80;;;;;;4135427;28;20465;-56
2022/04/11 07:24:38;;;;;;;4.77;1.80;;;28.10;63.80;;;;;;4139893;28;20305;-59
2022/04/11 07:26:41;;;;;;;3.40;1.77;;;28.00;63.90;;;;;;4142434;28;20983;-56
2022/04/11 07:28:44;;;;;;;4.22;2.10;;;27.90;63.90;;;;;;4136547;28;20048;-59
2022/04/11 07:30:46;;;;;;;3.90;1.80;;;27.90;64.00;;;;;;4138377;28;20511;-57
2022/04/11 07:32:48;;;;;;;3.47;2.05;;;27.90;64.10;;;;;;4141701;28;20079;-55
2022/04/11 07:34:51;;;;;;;4.25;2.03;;;27.90;64.20;;;;;;4136270;28;20069;-57
2022/04/11 07:36:53;;;;;;;4.30;2.17;;;27.80;64.20;;;;;;4129495;28;20503;-52
2022/04/11 07:38:56;;;;;;;3.05;1.80;;;27.80;64.40;;;;;;4132467;28;20056;-57
2022/04/11 07:40:58;;;;;;;4.57;2.20;;;27.80;64.50;;;;;;4134606;28;20124;-58
2022/04/11 07:43:00;;;;;;;3.10;2.38;;;27.70;64.60;;;;;;4131612;28;20060;-55
2022/04/11 07:45:03;;;;;;;5.40;2.43;;;27.70;64.70;;;;;;4131797;28;20131;-60
2022/04/11 07:47:05;;;;;;;6.72;2.30;;;27.70;64.90;;;;;;4137663;28;20051;-61
2022/04/11 07:49:09;;;;;;;4.82;2.08;;;27.60;64.80;;;;;;4143944;28;20064;-59
2022/04/11 07:51:11;;;;;;;6.28;2.05;;;27.60;64.90;;;;;;4138105;28;20512;-58
2022/04/11 07:53:13;;;;;;;6.35;2.15;;;27.60;65.10;;;;;;4136952;28;20056;-60
2022/04/11 07:55:16;;;;;;;6.28;2.35;;;27.60;65.40;;;;;;4142333;28;20231;-59
2022/04/11 07:57:18;;;;;;;;;;;27.50;65.50;;;;;;4139786;28;20585;-59
2022/04/11 07:59:20;;;;;;;4.63;2.05;;;27.60;65.60;;;;;;4154891;28;19928;-56
2022/04/11 08:01:23;;;;;;;3.60;1.80;;;27.60;65.70;;;;;;4144485;28;20064;-58
2022/04/11 08:03:25;;;;;;;7.72;2.08;;;27.60;66.00;;;;;;4148436;28;20329;-55
2022/04/11 08:05:27;;;;;;;4.82;2.63;;;27.60;65.80;;;;;;4138674;28;20107;-52
2022/04/11 08:07:30;;;;;;;6.30;2.63;;;27.60;65.90;;;;;;4137947;28;20559;-52
2022/04/11 08:09:32;;;;;;;6.22;2.70;;;27.50;65.70;;;;;;4146896;28;20063;-58
2022/04/11 08:11:34;;;;;;;6.82;2.50;;;27.50;65.70;;;;;;4137081;28;20981;-59
2022/04/11 08:13:36;;;;;;;8.00;3.00;;;27.50;65.70;;;;;;4135221;28;20052;-60
2022/04/11 08:15:39;;;;;;;5.85;2.45;;;27.50;65.80;;;;;;4142872;28;20317;-59
2022/04/11 08:17:41;;;;;;;5.18;2.80;;;27.50;65.90;;;;;;4141079;28;20069;-62
2022/04/11 08:19:43;;;;;;;4.33;2.27;;;27.50;66.00;;;;;;4136335;28;20142;-61
2022/04/11 08:21:45;;;;;;;7.00;2.60;;;27.50;66.30;;;;;;4134391;28;20079;-60
2022/04/11 08:23:47;;;;;;;5.33;2.03;;;27.50;66.30;;;;;;4142676;28;20127;-56
2022/04/11 08:25:49;;;;;;;4.47;1.83;;;27.50;66.50;;;;;;4139952;28;20087;-57
2022/04/11 08:27:52;;;;;;;5.47;1.90;;;27.50;66.80;;;;;;4137238;28;20045;-60
2022/04/11 08:29:54;;;;;;;9.40;2.97;;;27.50;66.60;;;;;;4136276;28;20173;-57
2022/04/11 08:31:56;;;;;;;3.65;1.70;;;27.50;66.90;;;;;;4144436;28;21671;-56
2022/04/11 08:33:58;;;;;;;3.75;1.73;;;27.50;67.00;;;;;;4138218;28;20053;-59
2022/04/11 08:36:00;;;;;;;6.43;2.08;;;27.50;67.00;;;;;;4138820;28;21268;-54
2022/04/11 08:38:02;;;;;;;3.83;2.07;;;27.50;67.00;;;;;;4142179;28;20614;-62
2022/04/11 08:40:06;;;;;;;3.77;1.93;;;27.50;67.00;;;;;;4136703;28;20383;-60
2022/04/11 08:42:09;;;;;;;7.22;2.53;;;27.50;67.00;;;;;;4137084;28;20055;-61
2022/04/11 08:44:13;;;;;;;6.80;2.72;;;27.50;67.00;;;;;;4140886;28;21009;-63
2022/04/11 08:46:20;;;;;;;6.50;2.30;;;27.50;67.00;;;;;;4127006;28;20049;-62
2022/04/11 08:48:22;;;;;;;6.85;2.40;;;27.40;67.10;;;;;;4142113;28;21480;-60
2022/04/11 08:50:25;;;;;;;8.43;2.78;;;27.40;67.20;;;;;;4139329;28;20532;-59
2022/04/11 08:52:29;;;;;;;7.82;2.47;;;27.40;67.50;;;;;;4137696;28;20044;-62
2022/04/11 08:54:31;;;;;;;6.95;2.58;;;27.40;67.50;;;;;;4144244;28;20048;-61
2022/04/11 08:56:34;;;;;;;6.68;3.08;;;27.40;67.50;;;;;;4137508;28;20183;-61
2022/04/11 08:58:36;;;;;;;4.93;2.78;;;27.40;67.70;;;;;;4137103;28;20106;-59
2022/04/11 09:00:39;;;;;;;6.63;3.00;;;27.30;67.60;;;;;;4142380;28;20575;-58
2022/04/11 09:02:46;;;;;;;5.28;3.30;;;27.30;67.60;;;;;;4148133;28;20834;-58
2022/04/11 09:05:06;;;;;;;5.72;3.10;;;27.30;67.80;;;;;;4142156;28;20189;-56
2022/04/11 09:07:08;;;;;;;6.80;2.80;;;27.30;67.90;;;;;;4145065;28;20614;-57
2022/04/11 09:09:12;;;;;;;4.85;2.75;;;27.30;67.90;;;;;;4136203;28;21065;-56
2022/04/11 09:11:26;;;;;;;7.53;3.42;;;27.30;68.00;;;;;;4136896;28;20534;-57
2022/04/11 09:13:28;;;;;;;8.52;3.50;;;27.30;68.00;;;;;;4137342;28;20044;-53
2022/04/11 09:15:42;;;;;;;5.33;3.43;;;27.30;68.00;;;;;;4134956;28;20048;-56
2022/04/11 09:17:45;;;;;;;6.72;2.80;;;27.30;68.10;;;;;;4135519;28;20581;-53
2022/04/11 09:19:47;;;;;;;5.45;3.08;;;27.30;68.10;;;;;;4144517;28;20048;-57
2022/04/11 09:21:50;;;;;;;7.07;3.43;;;27.30;68.20;;;;;;4137577;28;20057;-58
2022/04/11 09:24:13;;;;;;;8.27;3.55;;;27.30;68.10;;;;;;4137203;28;20045;-56
2022/04/11 09:26:25;;;;;;;7.33;3.53;;;27.30;68.10;;;;;;4134863;28;20200;-62
2022/04/11 09:28:27;;;;;;;5.32;3.38;;;27.30;68.20;;;;;;4138235;28;21002;-58
2022/04/11 09:30:32;;;;;;;10.07;3.38;;;27.30;68.00;;;;;;4134056;28;20142;-61
2022/04/11 09:32:35;;;;;;;5.10;2.95;;;27.20;68.10;;;;;;4135887;28;20755;-59
2022/04/11 09:34:37;;;;;;;7.67;3.40;;;27.20;68.10;;;;;;4143042;28;20052;-60
2022/04/11 09:36:51;;;;;;;7.13;3.20;;;27.20;68.20;;;;;;4142201;28;20258;-61
2022/04/11 09:39:00;;;;;;;6.22;3.15;;;27.20;68.40;;;;;;4142047;28;20914;-60
2022/04/11 09:41:03;;;;;;;7.32;3.20;;;27.20;68.30;;;;;;4139866;28;21663;-60
2022/04/11 09:43:06;;;;;;;6.97;3.30;;;27.20;68.30;;;;;;4136949;28;20428;-58
2022/04/11 09:45:17;;;;;;;7.07;3.60;;;27.20;68.30;;;;;;4136596;28;20564;-60
2022/04/11 09:47:19;;;;;;;6.80;3.90;;;27.20;68.40;;;;;;4134050;28;20052;-61
2022/04/11 09:49:22;;;;;;;5.68;3.33;;;27.20;68.40;;;;;;4141385;28;20044;-61
2022/04/11 09:51:24;;;;;;;;;;;27.20;68.40;;;;;;4137959;28;20173;-60
2022/04/11 09:53:32;;;;;;;9.32;3.60;;;27.20;68.40;;;;;;4136426;28;19932;-60
2022/04/11 09:55:38;;;;;;;8.15;3.53;;;27.20;68.50;;;;;;4137049;28;20052;-60
2022/04/11 09:57:40;;;;;;;6.07;3.10;;;27.10;68.50;;;;;;4142954;28;20125;-58
2022/04/11 09:59:44;;;;;;;8.07;3.58;;;27.20;68.60;;;;;;4142213;28;20056;-60
2022/04/11 10:01:48;;;;;;;5.55;3.40;;;27.10;68.70;;;;;;4138742;28;20063;-63
2022/04/11 10:03:50;;;;;;;10.13;4.22;;;27.10;68.40;;;;;;4140588;28;20041;-62
2022/04/11 10:06:05;;;;;;;8.18;3.55;;;27.10;68.50;;;;;;4160553;28;20740;-63
2022/04/11 10:08:12;;;;;;;7.35;3.15;;;27.10;68.60;;;;;;4142898;28;20113;-64
2022/04/11 10:10:26;;;;;;;12.43;3.40;;;27.10;68.70;;;;;;4144559;28;20063;-64
2022/04/11 10:12:33;;;;;;;8.80;3.03;;;27.10;68.70;;;;;;4148247;28;20055;-62
2022/04/11 10:14:36;;;;;;;8.30;3.47;;;27.10;68.80;;;;;;4145317;28;20052;-65
2022/04/11 10:16:42;;;;;;;8.30;3.28;;;27.10;68.80;;;;;;4141400;28;20086;-66
2022/04/11 10:18:47;;;;;;;8.32;3.90;;;27.00;68.70;;;;;;4143369;28;20242;-64
2022/04/11 10:20:58;;;;;;;9.68;3.42;;;27.10;68.80;;;;;;4128598;28;20072;-68
2022/04/11 10:23:30;;;;;;;6.35;3.40;;;27.00;68.70;;;;;;4148170;28;20751;-66
2022/04/11 10:25:49;;;;;;;6.03;3.35;;;27.00;68.80;;;;;;4153005;28;20080;-65
2022/04/11 10:28:15;;;;;;;7.63;3.28;;;27.00;68.90;;;;;;4153368;28;20064;-63
2022/04/11 10:30:30;;;;;;;5.63;3.25;;;27.00;68.80;;;;;;4135054;28;20049;-63
2022/04/11 10:32:35;;;;;;;10.05;3.50;;;27.00;68.90;;;;;;4128057;28;20049;-61
2022/04/11 10:35:00;;;;;;;14.05;3.33;;;27.00;68.90;;;;;;4147526;28;20060;-62
2022/04/11 10:37:04;;;;;;;6.90;3.08;;;27.00;68.90;;;;;;4136676;28;20049;-61
2022/04/11 10:39:15;;;;;;;7.35;3.53;;;27.00;69.00;;;;;;4133905;28;20045;-62
2022/04/11 10:42:09;;;;;;;6.78;3.30;;;27.00;69.00;;;;;;4151820;28;20069;-63
2022/04/11 10:44:34;;;;;;;24.13;3.97;;;27.00;69.00;;;;;;4155651;28;20068;-64
2022/04/11 10:47:15;;;;;;;5.60;3.45;;;27.00;69.00;;;;;;4154642;28;20133;-62
2022/04/11 10:49:17;;;;;;;5.93;3.35;;;27.00;69.00;;;;;;4145264;28;20513;-63
2022/04/11 10:51:19;;;;;;;7.53;3.67;;;26.90;68.70;;;;;;4154921;28;20580;-63
2022/04/11 10:53:25;;;;;;;9.90;3.42;;;26.90;68.10;;;;;;4132889;28;20064;-64
2022/04/11 10:55:28;;;;;;;8.15;3.65;;;26.90;68.00;;;;;;4147136;28;20557;-69
2022/04/11 10:57:38;;;;;;;7.78;3.00;;;26.90;68.10;;;;;;4151206;28;20053;-69
2022/04/11 11:00:17;;;;;;;6.53;3.30;;;26.90;68.20;;;;;;4143060;28;20118;-64